Kenel, South Dakota
Current Conditions -  °F | °C
As of 2:52 PM on Tuesday 21 Oct 2014 (Local Time) from KMBG Reporting Station
Clear Clear  
Wind Chill: 85°   Ceiling: Unl
Heat Index: 85°   Visibility: 10mi
Dew Point: 43°   Wind: 25mph
Humidity: 23%   Direction: 180°S
Pressure: 29.69"   Gusts: 36mph
Location:  45.6923°N, 100.994°W
Report Text: KMBG 212052Z AUTO 18022G31KT 10SM CLR 29/06 A2969 RMK AO2 PK WND 18034/2031 SLP044 T02940061 $
Loading
Personal Weather Stations






























Interactive Weather Map
Tropical Storm Tracking
New forecast layout! Learn more

10-Day Weather Forecast

Advertisements
Track Severe Weather on mobile